sensor_id;sensor_type;location;lat;lon;timestamp;temperature;humidity
23259;DHT22;11798;51.528;7.240;2022-11-03T00:01:02;10.80;99.90
23259;DHT22;11798;51.528;7.240;2022-11-03T00:03:27;10.80;99.90
23259;DHT22;11798;51.528;7.240;2022-11-03T00:05:53;10.80;99.90
23259;DHT22;11798;51.528;7.240;2022-11-03T00:11:07;10.70;99.90
23259;DHT22;11798;51.528;7.240;2022-11-03T00:13:34;10.70;99.90
23259;DHT22;11798;51.528;7.240;2022-11-03T00:16:00;10.70;99.90
23259;DHT22;11798;51.528;7.240;2022-11-03T00:18:26;10.70;99.90
23259;DHT22;11798;51.528;7.240;2022-11-03T00:21:05;10.70;99.90
23259;DHT22;11798;51.528;7.240;2022-11-03T00:23:36;10.70;99.90
23259;DHT22;11798;51.528;7.240;2022-11-03T00:26:16;10.70;99.90
23259;DHT22;11798;51.528;7.240;2022-11-03T00:28:44;10.70;99.90
23259;DHT22;11798;51.528;7.240;2022-11-03T00:31:13;10.70;99.90
23259;DHT22;11798;51.528;7.240;2022-11-03T00:33:39;10.80;99.90
23259;DHT22;11798;51.528;7.240;2022-11-03T00:36:06;10.80;99.90
23259;DHT22;11798;51.528;7.240;2022-11-03T00:38:32;10.80;99.90
23259;DHT22;11798;51.528;7.240;2022-11-03T00:40:59;10.80;99.90
23259;DHT22;11798;51.528;7.240;2022-11-03T00:43:27;10.80;99.90
23259;DHT22;11798;51.528;7.240;2022-11-03T00:45:53;10.80;99.90
23259;DHT22;11798;51.528;7.240;2022-11-03T00:48:19;10.80;99.90
23259;DHT22;11798;51.528;7.240;2022-11-03T00:53:24;10.90;99.90
23259;DHT22;11798;51.528;7.240;2022-11-03T00:55:49;10.90;99.90
23259;DHT22;11798;51.528;7.240;2022-11-03T00:58:15;11.00;99.90
23259;DHT22;11798;51.528;7.240;2022-11-03T01:00:41;11.00;99.90
23259;DHT22;11798;51.528;7.240;2022-11-03T01:05:41;11.10;99.90
23259;DHT22;11798;51.528;7.240;2022-11-03T01:08:31;11.10;99.90
23259;DHT22;11798;51.528;7.240;2022-11-03T01:11:04;11.10;99.90
23259;DHT22;11798;51.528;7.240;2022-11-03T01:13:48;11.10;99.90
23259;DHT22;11798;51.528;7.240;2022-11-03T01:16:14;11.10;99.90
23259;DHT22;11798;51.528;7.240;2022-11-03T01:18:39;11.10;99.90
23259;DHT22;11798;51.528;7.240;2022-11-03T01:21:05;11.10;99.90
23259;DHT22;11798;51.528;7.240;2022-11-03T01:23:30;11.10;99.90
23259;DHT22;11798;51.528;7.240;2022-11-03T01:25:56;11.10;99.90
23259;DHT22;11798;51.528;7.240;2022-11-03T01:28:21;11.10;99.90
23259;DHT22;11798;51.528;7.240;2022-11-03T01:30:47;11.20;99.90
23259;DHT22;11798;51.528;7.240;2022-11-03T01:33:13;11.20;99.90
23259;DHT22;11798;51.528;7.240;2022-11-03T01:35:39;11.20;99.90
23259;DHT22;11798;51.528;7.240;2022-11-03T01:38:04;11.20;99.90
23259;DHT22;11798;51.528;7.240;2022-11-03T01:40:31;11.20;99.90
23259;DHT22;11798;51.528;7.240;2022-11-03T01:43:17;11.10;99.90
23259;DHT22;11798;51.528;7.240;2022-11-03T01:45:44;11.10;99.90
23259;DHT22;11798;51.528;7.240;2022-11-03T01:48:12;11.10;99.90
23259;DHT22;11798;51.528;7.240;2022-11-03T01:50:38;11.10;99.90
23259;DHT22;11798;51.528;7.240;2022-11-03T01:53:05;11.10;99.90
23259;DHT22;11798;51.528;7.240;2022-11-03T01:55:33;11.10;99.90
23259;DHT22;11798;51.528;7.240;2022-11-03T01:58:21;11.10;99.90
23259;DHT22;11798;51.528;7.240;2022-11-03T02:00:51;11.10;99.90
23259;DHT22;11798;51.528;7.240;2022-11-03T02:03:18;11.10;99.90
23259;DHT22;11798;51.528;7.240;2022-11-03T02:05:45;11.10;99.90
23259;DHT22;11798;51.528;7.240;2022-11-03T02:08:22;11.00;99.90
23259;DHT22;11798;51.528;7.240;2022-11-03T02:10:50;11.10;99.90
23259;DHT22;11798;51.528;7.240;2022-11-03T02:13:21;11.00;99.90
23259;DHT22;11798;51.528;7.240;2022-11-03T02:15:53;11.00;99.90
23259;DHT22;11798;51.528;7.240;2022-11-03T02:18:23;11.00;99.90
23259;DHT22;11798;51.528;7.240;2022-11-03T02:21:05;11.00;99.90
23259;DHT22;11798;51.528;7.240;2022-11-03T02:24:58;11.00;99.90
23259;DHT22;11798;51.528;7.240;2022-11-03T02:26:53;11.00;99.90
23259;DHT22;11798;51.528;7.240;2022-11-03T02:29:19;11.00;99.90
23259;DHT22;11798;51.528;7.240;2022-11-03T02:31:49;11.00;99.90
23259;DHT22;11798;51.528;7.240;2022-11-03T02:34:45;11.00;99.90
23259;DHT22;11798;51.528;7.240;2022-11-03T02:37:25;11.00;99.90
23259;DHT22;11798;51.528;7.240;2022-11-03T02:40:02;11.00;99.90
23259;DHT22;11798;51.528;7.240;2022-11-03T02:42:29;11.00;99.90
23259;DHT22;11798;51.528;7.240;2022-11-03T02:44:59;11.00;99.90
23259;DHT22;11798;51.528;7.240;2022-11-03T02:47:27;11.00;99.90
23259;DHT22;11798;51.528;7.240;2022-11-03T02:49:54;11.00;99.90
23259;DHT22;11798;51.528;7.240;2022-11-03T02:55:02;11.00;99.90
23259;DHT22;11798;51.528;7.240;2022-11-03T02:57:32;11.00;99.90
23259;DHT22;11798;51.528;7.240;2022-11-03T03:00:05;11.10;99.90
23259;DHT22;11798;51.528;7.240;2022-11-03T03:02:49;11.10;99.90
23259;DHT22;11798;51.528;7.240;2022-11-03T03:05:18;11.00;99.90
23259;DHT22;11798;51.528;7.240;2022-11-03T03:07:47;11.00;99.90
23259;DHT22;11798;51.528;7.240;2022-11-03T03:10:17;11.00;99.90
23259;DHT22;11798;51.528;7.240;2022-11-03T03:12:50;11.00;99.90
23259;DHT22;11798;51.528;7.240;2022-11-03T03:15:17;11.00;99.90
23259;DHT22;11798;51.528;7.240;2022-11-03T03:17:49;11.00;99.90
23259;DHT22;11798;51.528;7.240;2022-11-03T03:20:31;11.00;99.90
23259;DHT22;11798;51.528;7.240;2022-11-03T03:28:09;11.00;99.90
23259;DHT22;11798;51.528;7.240;2022-11-03T03:30:36;11.00;99.90
23259;DHT22;11798;51.528;7.240;2022-11-03T03:33:04;11.00;99.90
23259;DHT22;11798;51.528;7.240;2022-11-03T03:35:33;11.10;99.90
23259;DHT22;11798;51.528;7.240;2022-11-03T03:38:04;11.00;99.90
23259;DHT22;11798;51.528;7.240;2022-11-03T03:40:34;11.00;99.90
23259;DHT22;11798;51.528;7.240;2022-11-03T03:43:02;11.00;99.90
23259;DHT22;11798;51.528;7.240;2022-11-03T03:45:30;11.10;99.90
23259;DHT22;11798;51.528;7.240;2022-11-03T03:47:56;11.00;99.90
23259;DHT22;11798;51.528;7.240;2022-11-03T03:50:24;11.00;99.90
23259;DHT22;11798;51.528;7.240;2022-11-03T03:52:56;11.00;99.90
23259;DHT22;11798;51.528;7.240;2022-11-03T03:55:25;11.00;99.90
23259;DHT22;11798;51.528;7.240;2022-11-03T03:57:55;11.00;99.90
23259;DHT22;11798;51.528;7.240;2022-11-03T04:00:21;11.10;99.90
23259;DHT22;11798;51.528;7.240;2022-11-03T04:02:46;11.10;99.90
23259;DHT22;11798;51.528;7.240;2022-11-03T04:05:12;11.10;99.90
23259;DHT22;11798;51.528;7.240;2022-11-03T04:07:38;11.10;99.90
23259;DHT22;11798;51.528;7.240;2022-11-03T04:10:13;11.00;99.90
23259;DHT22;11798;51.528;7.240;2022-11-03T04:12:40;11.10;99.90
23259;DHT22;11798;51.528;7.240;2022-11-03T04:15:24;11.00;99.90
23259;DHT22;11798;51.528;7.240;2022-11-03T04:18:08;11.00;99.90
23259;DHT22;11798;51.528;7.240;2022-11-03T04:20:52;11.10;99.90
23259;DHT22;11798;51.528;7.240;2022-11-03T04:23:36;11.00;99.90
23259;DHT22;11798;51.528;7.240;2022-11-03T04:26:05;11.10;99.90
23259;DHT22;11798;51.528;7.240;2022-11-03T04:28:34;11.10;99.90
23259;DHT22;11798;51.528;7.240;2022-11-03T04:31:00;11.10;99.90
23259;DHT22;11798;51.528;7.240;2022-11-03T04:33:28;11.20;99.90
23259;DHT22;11798;51.528;7.240;2022-11-03T04:35:55;11.10;99.90
23259;DHT22;11798;51.528;7.240;2022-11-03T04:38:22;11.20;99.90
23259;DHT22;11798;51.528;7.240;2022-11-03T04:40:56;11.10;99.90
23259;DHT22;11798;51.528;7.240;2022-11-03T04:43:31;11.20;99.90
23259;DHT22;11798;51.528;7.240;2022-11-03T04:45:57;11.20;99.90
23259;DHT22;11798;51.528;7.240;2022-11-03T04:48:24;11.20;99.90
23259;DHT22;11798;51.528;7.240;2022-11-03T04:50:54;11.20;99.90
23259;DHT22;11798;51.528;7.240;2022-11-03T04:53:21;11.30;99.90
23259;DHT22;11798;51.528;7.240;2022-11-03T04:55:49;11.20;99.90
23259;DHT22;11798;51.528;7.240;2022-11-03T05:00:41;11.30;99.90
23259;DHT22;11798;51.528;7.240;2022-11-03T05:03:12;11.30;99.90
23259;DHT22;11798;51.528;7.240;2022-11-03T05:05:39;11.30;99.90
23259;DHT22;11798;51.528;7.240;2022-11-03T05:08:07;11.30;99.90
23259;DHT22;11798;51.528;7.240;2022-11-03T05:10:33;11.20;99.90
23259;DHT22;11798;51.528;7.240;2022-11-03T05:12:59;11.20;99.90
23259;DHT22;11798;51.528;7.240;2022-11-03T05:15:26;11.30;99.90
23259;DHT22;11798;51.528;7.240;2022-11-03T05:17:57;11.30;99.90
23259;DHT22;11798;51.528;7.240;2022-11-03T05:20:35;11.30;99.90
23259;DHT22;11798;51.528;7.240;2022-11-03T05:23:01;11.30;99.90
23259;DHT22;11798;51.528;7.240;2022-11-03T05:25:44;11.30;99.90
23259;DHT22;11798;51.528;7.240;2022-11-03T05:28:36;11.30;99.90
23259;DHT22;11798;51.528;7.240;2022-11-03T05:31:20;11.30;99.90
23259;DHT22;11798;51.528;7.240;2022-11-03T05:33:46;11.20;99.90
23259;DHT22;11798;51.528;7.240;2022-11-03T05:36:18;11.30;99.90
23259;DHT22;11798;51.528;7.240;2022-11-03T05:38:44;11.30;99.90
23259;DHT22;11798;51.528;7.240;2022-11-03T05:41:19;11.30;99.90
23259;DHT22;11798;51.528;7.240;2022-11-03T05:46:20;11.30;99.90
23259;DHT22;11798;51.528;7.240;2022-11-03T05:48:46;11.30;99.90
23259;DHT22;11798;51.528;7.240;2022-11-03T05:51:26;11.30;99.90
23259;DHT22;11798;51.528;7.240;2022-11-03T05:53:56;11.30;99.90
23259;DHT22;11798;51.528;7.240;2022-11-03T05:56:23;11.30;99.90
23259;DHT22;11798;51.528;7.240;2022-11-03T05:58:52;11.40;99.90
23259;DHT22;11798;51.528;7.240;2022-11-03T06:01:25;11.40;99.90
23259;DHT22;11798;51.528;7.240;2022-11-03T06:03:53;11.40;99.90
23259;DHT22;11798;51.528;7.240;2022-11-03T06:06:20;11.40;99.90
23259;DHT22;11798;51.528;7.240;2022-11-03T06:08:46;11.40;99.90
23259;DHT22;11798;51.528;7.240;2022-11-03T06:11:27;11.50;99.90
23259;DHT22;11798;51.528;7.240;2022-11-03T06:13:55;11.50;99.90
23259;DHT22;11798;51.528;7.240;2022-11-03T06:21:44;11.60;99.90
23259;DHT22;11798;51.528;7.240;2022-11-03T06:24:12;11.60;99.90
23259;DHT22;11798;51.528;7.240;2022-11-03T06:26:39;11.60;99.90
23259;DHT22;11798;51.528;7.240;2022-11-03T06:29:12;11.60;99.90
23259;DHT22;11798;51.528;7.240;2022-11-03T06:31:38;11.60;99.90
23259;DHT22;11798;51.528;7.240;2022-11-03T06:34:26;11.60;99.90
23259;DHT22;11798;51.528;7.240;2022-11-03T06:36:55;11.60;99.90
23259;DHT22;11798;51.528;7.240;2022-11-03T06:39:22;11.60;99.90
23259;DHT22;11798;51.528;7.240;2022-11-03T06:41:48;11.60;99.90
23259;DHT22;11798;51.528;7.240;2022-11-03T06:44:24;11.60;99.90
23259;DHT22;11798;51.528;7.240;2022-11-03T06:46:54;11.60;99.90
23259;DHT22;11798;51.528;7.240;2022-11-03T06:49:30;11.60;99.90
23259;DHT22;11798;51.528;7.240;2022-11-03T06:51:58;11.70;99.90
23259;DHT22;11798;51.528;7.240;2022-11-03T06:54:26;11.70;99.90
23259;DHT22;11798;51.528;7.240;2022-11-03T06:56:52;11.60;99.90
23259;DHT22;11798;51.528;7.240;2022-11-03T06:59:18;11.70;99.90
23259;DHT22;11798;51.528;7.240;2022-11-03T07:01:46;11.60;99.90
23259;DHT22;11798;51.528;7.240;2022-11-03T07:04:21;11.70;99.90
23259;DHT22;11798;51.528;7.240;2022-11-03T07:06:48;11.70;99.90
23259;DHT22;11798;51.528;7.240;2022-11-03T07:09:23;11.70;99.90
23259;DHT22;11798;51.528;7.240;2022-11-03T07:11:57;11.70;99.90
23259;DHT22;11798;51.528;7.240;2022-11-03T07:14:25;11.80;99.90
23259;DHT22;11798;51.528;7.240;2022-11-03T07:16:55;11.80;99.90
23259;DHT22;11798;51.528;7.240;2022-11-03T07:19:28;11.80;99.90
23259;DHT22;11798;51.528;7.240;2022-11-03T07:22:03;11.80;99.90
23259;DHT22;11798;51.528;7.240;2022-11-03T07:24:33;11.90;99.90
23259;DHT22;11798;51.528;7.240;2022-11-03T07:29:52;12.00;99.90
23259;DHT22;11798;51.528;7.240;2022-11-03T07:32:23;12.00;99.90
23259;DHT22;11798;51.528;7.240;2022-11-03T07:35:43;12.00;99.90
23259;DHT22;11798;51.528;7.240;2022-11-03T07:37:43;12.00;99.90
23259;DHT22;11798;51.528;7.240;2022-11-03T07:40:17;12.00;99.90
23259;DHT22;11798;51.528;7.240;2022-11-03T07:42:43;12.10;99.90
23259;DHT22;11798;51.528;7.240;2022-11-03T07:45:35;12.00;99.90
23259;DHT22;11798;51.528;7.240;2022-11-03T07:50:41;12.10;99.90
23259;DHT22;11798;51.528;7.240;2022-11-03T07:53:21;12.10;99.90
23259;DHT22;11798;51.528;7.240;2022-11-03T07:55:50;12.20;99.90
23259;DHT22;11798;51.528;7.240;2022-11-03T07:58:23;12.20;99.90
23259;DHT22;11798;51.528;7.240;2022-11-03T08:00:53;12.30;99.90
23259;DHT22;11798;51.528;7.240;2022-11-03T08:03:43;12.40;99.90
23259;DHT22;11798;51.528;7.240;2022-11-03T08:06:10;12.40;99.90
23259;DHT22;11798;51.528;7.240;2022-11-03T08:08:36;12.50;99.90
23259;DHT22;11798;51.528;7.240;2022-11-03T08:11:02;12.50;99.90
23259;DHT22;11798;51.528;7.240;2022-11-03T08:13:27;12.60;99.90
23259;DHT22;11798;51.528;7.240;2022-11-03T08:15:53;12.70;99.90
23259;DHT22;11798;51.528;7.240;2022-11-03T08:18:18;12.70;99.90
23259;DHT22;11798;51.528;7.240;2022-11-03T08:20:44;12.80;99.90
23259;DHT22;11798;51.528;7.240;2022-11-03T08:23:09;12.80;99.90
23259;DHT22;11798;51.528;7.240;2022-11-03T08:25:36;13.00;99.90
23259;DHT22;11798;51.528;7.240;2022-11-03T08:28:02;12.90;99.90
23259;DHT22;11798;51.528;7.240;2022-11-03T08:30:28;13.00;99.90
23259;DHT22;11798;51.528;7.240;2022-11-03T08:32:54;13.00;99.90
23259;DHT22;11798;51.528;7.240;2022-11-03T08:35:20;13.00;99.90
23259;DHT22;11798;51.528;7.240;2022-11-03T08:37:45;13.10;99.90
23259;DHT22;11798;51.528;7.240;2022-11-03T08:40:11;13.10;99.90
23259;DHT22;11798;51.528;7.240;2022-11-03T08:42:37;13.10;99.90
23259;DHT22;11798;51.528;7.240;2022-11-03T08:45:03;13.10;99.90
23259;DHT22;11798;51.528;7.240;2022-11-03T08:47:29;13.10;99.90
23259;DHT22;11798;51.528;7.240;2022-11-03T08:49:54;13.20;99.90
23259;DHT22;11798;51.528;7.240;2022-11-03T08:52:20;13.20;99.90
23259;DHT22;11798;51.528;7.240;2022-11-03T08:54:46;13.30;99.90
23259;DHT22;11798;51.528;7.240;2022-11-03T08:57:11;13.30;99.90
23259;DHT22;11798;51.528;7.240;2022-11-03T08:59:37;13.30;99.90
23259;DHT22;11798;51.528;7.240;2022-11-03T09:02:03;13.30;99.90
23259;DHT22;11798;51.528;7.240;2022-11-03T09:04:29;13.30;99.90
23259;DHT22;11798;51.528;7.240;2022-11-03T09:06:54;13.40;99.90
23259;DHT22;11798;51.528;7.240;2022-11-03T09:09:20;13.50;99.90
23259;DHT22;11798;51.528;7.240;2022-11-03T09:11:46;13.50;99.90
23259;DHT22;11798;51.528;7.240;2022-11-03T09:14:12;13.50;99.90
23259;DHT22;11798;51.528;7.240;2022-11-03T09:16:38;13.50;99.90
23259;DHT22;11798;51.528;7.240;2022-11-03T09:19:03;13.60;99.90
23259;DHT22;11798;51.528;7.240;2022-11-03T09:21:29;13.60;99.90
23259;DHT22;11798;51.528;7.240;2022-11-03T09:23:55;13.70;99.90
23259;DHT22;11798;51.528;7.240;2022-11-03T09:26:24;13.70;99.90
23259;DHT22;11798;51.528;7.240;2022-11-03T09:28:49;13.80;99.90
23259;DHT22;11798;51.528;7.240;2022-11-03T09:31:15;13.90;99.90
23259;DHT22;11798;51.528;7.240;2022-11-03T09:33:41;13.90;99.90
23259;DHT22;11798;51.528;7.240;2022-11-03T09:36:07;14.00;99.90
23259;DHT22;11798;51.528;7.240;2022-11-03T09:38:32;14.00;99.90
23259;DHT22;11798;51.528;7.240;2022-11-03T09:40:58;14.10;99.90
23259;DHT22;11798;51.528;7.240;2022-11-03T09:43:24;14.10;99.90
23259;DHT22;11798;51.528;7.240;2022-11-03T09:45:50;14.20;99.90
23259;DHT22;11798;51.528;7.240;2022-11-03T09:48:15;14.30;99.90
23259;DHT22;11798;51.528;7.240;2022-11-03T09:50:41;14.30;99.90
23259;DHT22;11798;51.528;7.240;2022-11-03T09:53:11;14.40;99.90
23259;DHT22;11798;51.528;7.240;2022-11-03T09:55:38;14.40;99.90
23259;DHT22;11798;51.528;7.240;2022-11-03T09:58:13;14.40;99.90
23259;DHT22;11798;51.528;7.240;2022-11-03T10:00:39;14.50;99.90
23259;DHT22;11798;51.528;7.240;2022-11-03T10:03:07;14.50;99.90
23259;DHT22;11798;51.528;7.240;2022-11-03T10:05:34;14.50;99.90
23259;DHT22;11798;51.528;7.240;2022-11-03T10:08:02;14.60;99.90
23259;DHT22;11798;51.528;7.240;2022-11-03T10:10:29;14.60;99.90
23259;DHT22;11798;51.528;7.240;2022-11-03T10:12:54;14.60;99.90
23259;DHT22;11798;51.528;7.240;2022-11-03T10:15:22;14.60;99.90
23259;DHT22;11798;51.528;7.240;2022-11-03T10:17:48;14.60;99.90
23259;DHT22;11798;51.528;7.240;2022-11-03T10:20:18;14.70;99.90
23259;DHT22;11798;51.528;7.240;2022-11-03T10:22:45;14.80;99.90
23259;DHT22;11798;51.528;7.240;2022-11-03T10:25:28;14.80;99.90
23259;DHT22;11798;51.528;7.240;2022-11-03T10:28:19;14.80;99.90
23259;DHT22;11798;51.528;7.240;2022-11-03T10:30:55;14.90;99.90
23259;DHT22;11798;51.528;7.240;2022-11-03T10:33:30;14.90;99.90
23259;DHT22;11798;51.528;7.240;2022-11-03T10:35:57;14.90;99.90
23259;DHT22;11798;51.528;7.240;2022-11-03T10:38:29;14.90;99.90
23259;DHT22;11798;51.528;7.240;2022-11-03T10:41:18;14.90;99.90
23259;DHT22;11798;51.528;7.240;2022-11-03T10:43:44;14.90;99.90
23259;DHT22;11798;51.528;7.240;2022-11-03T10:46:19;14.90;99.90
23259;DHT22;11798;51.528;7.240;2022-11-03T10:49:04;14.90;99.90
23259;DHT22;11798;51.528;7.240;2022-11-03T10:51:35;14.90;99.90
23259;DHT22;11798;51.528;7.240;2022-11-03T10:54:04;14.90;99.90
23259;DHT22;11798;51.528;7.240;2022-11-03T10:56:31;14.90;99.90
23259;DHT22;11798;51.528;7.240;2022-11-03T10:58:58;14.90;99.90
23259;DHT22;11798;51.528;7.240;2022-11-03T11:01:25;14.90;99.90
23259;DHT22;11798;51.528;7.240;2022-11-03T11:03:50;15.00;99.90
23259;DHT22;11798;51.528;7.240;2022-11-03T11:06:28;15.00;99.90
23259;DHT22;11798;51.528;7.240;2022-11-03T11:09:00;15.00;99.90
23259;DHT22;11798;51.528;7.240;2022-11-03T11:11:26;15.10;99.90
23259;DHT22;11798;51.528;7.240;2022-11-03T11:17:00;15.00;99.90
23259;DHT22;11798;51.528;7.240;2022-11-03T11:19:28;15.10;99.90
23259;DHT22;11798;51.528;7.240;2022-11-03T11:29:57;15.10;99.90
23259;DHT22;11798;51.528;7.240;2022-11-03T11:35:07;15.20;99.90
23259;DHT22;11798;51.528;7.240;2022-11-03T11:37:34;15.40;99.90
23259;DHT22;11798;51.528;7.240;2022-11-03T11:40:01;15.40;99.90
23259;DHT22;11798;51.528;7.240;2022-11-03T11:42:27;15.60;99.90
23259;DHT22;11798;51.528;7.240;2022-11-03T11:45:00;15.80;99.90
23259;DHT22;11798;51.528;7.240;2022-11-03T11:57:48;16.10;99.90
23259;DHT22;11798;51.528;7.240;2022-11-03T12:00:22;16.10;99.90
23259;DHT22;11798;51.528;7.240;2022-11-03T12:02:50;16.10;99.90
23259;DHT22;11798;51.528;7.240;2022-11-03T12:05:28;16.00;99.90
23259;DHT22;11798;51.528;7.240;2022-11-03T12:07:55;16.00;99.90
23259;DHT22;11798;51.528;7.240;2022-11-03T12:10:23;16.00;99.90
23259;DHT22;11798;51.528;7.240;2022-11-03T12:12:57;16.00;99.90
23259;DHT22;11798;51.528;7.240;2022-11-03T12:21:06;15.80;99.90
23259;DHT22;11798;51.528;7.240;2022-11-03T12:23:38;15.80;99.90
23259;DHT22;11798;51.528;7.240;2022-11-03T12:28:40;15.80;99.90
23259;DHT22;11798;51.528;7.240;2022-11-03T12:31:06;15.70;99.90
23259;DHT22;11798;51.528;7.240;2022-11-03T12:33:32;15.70;99.90
23259;DHT22;11798;51.528;7.240;2022-11-03T12:35:57;15.60;99.90
23259;DHT22;11798;51.528;7.240;2022-11-03T12:38:23;15.60;99.90
23259;DHT22;11798;51.528;7.240;2022-11-03T12:40:49;15.60;99.90
23259;DHT22;11798;51.528;7.240;2022-11-03T12:43:15;15.60;99.90
23259;DHT22;11798;51.528;7.240;2022-11-03T12:45:41;15.60;99.90
23259;DHT22;11798;51.528;7.240;2022-11-03T12:48:07;15.60;99.90
23259;DHT22;11798;51.528;7.240;2022-11-03T12:50:33;15.60;99.90
23259;DHT22;11798;51.528;7.240;2022-11-03T12:52:59;15.60;99.90
23259;DHT22;11798;51.528;7.240;2022-11-03T12:55:24;15.60;99.90
23259;DHT22;11798;51.528;7.240;2022-11-03T12:57:50;15.60;99.90
23259;DHT22;11798;51.528;7.240;2022-11-03T13:00:16;15.70;99.90
23259;DHT22;11798;51.528;7.240;2022-11-03T13:02:42;15.70;99.90
23259;DHT22;11798;51.528;7.240;2022-11-03T13:05:08;15.80;99.90
23259;DHT22;11798;51.528;7.240;2022-11-03T13:07:34;15.70;99.90
23259;DHT22;11798;51.528;7.240;2022-11-03T13:09:59;15.70;99.90
23259;DHT22;11798;51.528;7.240;2022-11-03T13:12:25;15.70;99.90
23259;DHT22;11798;51.528;7.240;2022-11-03T13:15:05;15.80;99.90
23259;DHT22;11798;51.528;7.240;2022-11-03T13:17:31;15.70;99.90
23259;DHT22;11798;51.528;7.240;2022-11-03T13:19:58;15.70;99.90
23259;DHT22;11798;51.528;7.240;2022-11-03T13:22:24;15.80;99.90
23259;DHT22;11798;51.528;7.240;2022-11-03T13:24:49;15.70;99.90
23259;DHT22;11798;51.528;7.240;2022-11-03T13:27:15;15.70;99.90
23259;DHT22;11798;51.528;7.240;2022-11-03T13:29:41;15.70;99.90
23259;DHT22;11798;51.528;7.240;2022-11-03T13:32:06;15.60;99.90
23259;DHT22;11798;51.528;7.240;2022-11-03T13:34:32;15.60;99.90
23259;DHT22;11798;51.528;7.240;2022-11-03T13:36:58;15.50;99.90
23259;DHT22;11798;51.528;7.240;2022-11-03T13:39:24;15.40;99.90
23259;DHT22;11798;51.528;7.240;2022-11-03T13:41:49;15.30;99.90
23259;DHT22;11798;51.528;7.240;2022-11-03T13:44:15;15.30;99.90
23259;DHT22;11798;51.528;7.240;2022-11-03T13:46:41;15.30;99.90
23259;DHT22;11798;51.528;7.240;2022-11-03T13:49:06;15.30;99.90
23259;DHT22;11798;51.528;7.240;2022-11-03T13:51:32;15.20;99.90
23259;DHT22;11798;51.528;7.240;2022-11-03T13:53:57;15.20;99.90
23259;DHT22;11798;51.528;7.240;2022-11-03T13:56:23;15.20;99.90
23259;DHT22;11798;51.528;7.240;2022-11-03T13:58:49;15.20;99.90
23259;DHT22;11798;51.528;7.240;2022-11-03T14:01:15;15.10;99.90
23259;DHT22;11798;51.528;7.240;2022-11-03T14:03:41;15.20;99.90
23259;DHT22;11798;51.528;7.240;2022-11-03T14:06:07;15.20;99.90
23259;DHT22;11798;51.528;7.240;2022-11-03T14:08:32;15.20;99.90
23259;DHT22;11798;51.528;7.240;2022-11-03T14:10:58;15.20;99.90
23259;DHT22;11798;51.528;7.240;2022-11-03T14:13:23;15.20;99.90
23259;DHT22;11798;51.528;7.240;2022-11-03T14:15:49;15.00;99.90
23259;DHT22;11798;51.528;7.240;2022-11-03T14:18:14;14.90;99.90
23259;DHT22;11798;51.528;7.240;2022-11-03T14:20:40;14.90;99.90
23259;DHT22;11798;51.528;7.240;2022-11-03T14:23:05;14.90;99.90
23259;DHT22;11798;51.528;7.240;2022-11-03T14:25:31;14.90;99.90
23259;DHT22;11798;51.528;7.240;2022-11-03T14:27:57;14.80;99.90
23259;DHT22;11798;51.528;7.240;2022-11-03T14:30:22;14.80;99.90
23259;DHT22;11798;51.528;7.240;2022-11-03T14:32:48;14.80;99.90
23259;DHT22;11798;51.528;7.240;2022-11-03T14:35:13;14.80;99.90
23259;DHT22;11798;51.528;7.240;2022-11-03T14:37:39;14.70;99.90
23259;DHT22;11798;51.528;7.240;2022-11-03T14:40:05;14.70;99.90
23259;DHT22;11798;51.528;7.240;2022-11-03T14:42:31;14.70;99.90
23259;DHT22;11798;51.528;7.240;2022-11-03T14:44:57;14.60;99.90
23259;DHT22;11798;51.528;7.240;2022-11-03T14:47:22;14.60;99.90
23259;DHT22;11798;51.528;7.240;2022-11-03T14:49:50;14.60;99.90
23259;DHT22;11798;51.528;7.240;2022-11-03T14:52:16;14.60;99.90
23259;DHT22;11798;51.528;7.240;2022-11-03T14:54:42;14.60;99.90
23259;DHT22;11798;51.528;7.240;2022-11-03T14:57:08;14.60;99.90
23259;DHT22;11798;51.528;7.240;2022-11-03T14:59:34;14.50;99.90
23259;DHT22;11798;51.528;7.240;2022-11-03T15:02:00;14.50;99.90
23259;DHT22;11798;51.528;7.240;2022-11-03T15:04:26;14.50;99.90
23259;DHT22;11798;51.528;7.240;2022-11-03T15:06:51;14.50;99.90
23259;DHT22;11798;51.528;7.240;2022-11-03T15:09:17;14.40;99.90
23259;DHT22;11798;51.528;7.240;2022-11-03T15:11:44;14.40;99.90
23259;DHT22;11798;51.528;7.240;2022-11-03T15:14:11;14.30;99.90
23259;DHT22;11798;51.528;7.240;2022-11-03T15:16:37;14.30;99.90
23259;DHT22;11798;51.528;7.240;2022-11-03T15:19:04;14.30;99.90
23259;DHT22;11798;51.528;7.240;2022-11-03T15:21:30;14.20;99.90
23259;DHT22;11798;51.528;7.240;2022-11-03T15:23:56;14.20;99.90
23259;DHT22;11798;51.528;7.240;2022-11-03T15:26:22;14.10;99.90
23259;DHT22;11798;51.528;7.240;2022-11-03T15:28:49;14.20;99.90
23259;DHT22;11798;51.528;7.240;2022-11-03T15:31:14;14.10;99.90
23259;DHT22;11798;51.528;7.240;2022-11-03T15:33:40;14.10;99.90
23259;DHT22;11798;51.528;7.240;2022-11-03T15:36:07;14.00;99.90
23259;DHT22;11798;51.528;7.240;2022-11-03T15:38:33;13.90;99.90
23259;DHT22;11798;51.528;7.240;2022-11-03T15:40:59;13.80;99.90
23259;DHT22;11798;51.528;7.240;2022-11-03T15:43:41;13.70;99.90
23259;DHT22;11798;51.528;7.240;2022-11-03T15:46:07;13.70;99.90
23259;DHT22;11798;51.528;7.240;2022-11-03T15:48:33;13.60;99.90
23259;DHT22;11798;51.528;7.240;2022-11-03T15:50:59;13.60;99.90
23259;DHT22;11798;51.528;7.240;2022-11-03T15:53:24;13.60;99.90
23259;DHT22;11798;51.528;7.240;2022-11-03T15:55:50;13.40;99.90
23259;DHT22;11798;51.528;7.240;2022-11-03T15:58:15;13.30;99.90
23259;DHT22;11798;51.528;7.240;2022-11-03T16:00:41;13.20;99.90
23259;DHT22;11798;51.528;7.240;2022-11-03T16:03:06;13.10;99.90
23259;DHT22;11798;51.528;7.240;2022-11-03T16:05:32;13.10;99.90
23259;DHT22;11798;51.528;7.240;2022-11-03T16:07:57;13.00;99.90
23259;DHT22;11798;51.528;7.240;2022-11-03T16:10:25;13.00;99.90
23259;DHT22;11798;51.528;7.240;2022-11-03T16:12:50;12.90;99.90
23259;DHT22;11798;51.528;7.240;2022-11-03T16:15:16;12.90;99.90
23259;DHT22;11798;51.528;7.240;2022-11-03T16:17:41;12.90;99.90
23259;DHT22;11798;51.528;7.240;2022-11-03T16:20:08;12.80;99.90
23259;DHT22;11798;51.528;7.240;2022-11-03T16:22:34;12.70;99.90
23259;DHT22;11798;51.528;7.240;2022-11-03T16:25:00;12.70;99.90
23259;DHT22;11798;51.528;7.240;2022-11-03T16:27:26;12.70;99.90
23259;DHT22;11798;51.528;7.240;2022-11-03T16:29:51;12.60;99.90
23259;DHT22;11798;51.528;7.240;2022-11-03T16:32:20;12.70;99.90
23259;DHT22;11798;51.528;7.240;2022-11-03T16:34:46;12.50;99.90
23259;DHT22;11798;51.528;7.240;2022-11-03T16:37:13;12.50;99.90
23259;DHT22;11798;51.528;7.240;2022-11-03T16:39:39;12.60;99.90
23259;DHT22;11798;51.528;7.240;2022-11-03T16:42:05;12.50;99.90
23259;DHT22;11798;51.528;7.240;2022-11-03T16:44:30;12.50;99.90